createdAt,value
2023-02-08T00:00:24.442Z,15.90
2023-02-08T00:02:51.608Z,15.75
2023-02-08T00:05:19.117Z,18.02
2023-02-08T00:07:46.185Z,15.50
2023-02-08T00:10:12.963Z,18.30
2023-02-08T00:12:39.647Z,15.60
2023-02-08T00:15:07.031Z,16.20
2023-02-08T00:17:33.718Z,17.33
2023-02-08T00:20:00.585Z,15.70
2023-02-08T00:22:27.610Z,16.08
2023-02-08T00:24:54.408Z,15.60
2023-02-08T00:27:21.169Z,17.45
2023-02-08T00:29:47.984Z,16.23
2023-02-08T00:32:14.752Z,16.40
2023-02-08T00:34:41.481Z,16.73
2023-02-08T00:37:08.445Z,16.23
2023-02-08T00:39:35.279Z,16.85
2023-02-08T00:42:02.063Z,15.35
2023-02-08T00:44:28.816Z,16.13
2023-02-08T00:46:55.713Z,16.98
2023-02-08T00:49:22.575Z,17.38
2023-02-08T00:51:49.651Z,17.25
2023-02-08T00:54:18.220Z,16.60
2023-02-08T00:56:45.264Z,16.23
2023-02-08T00:59:14.066Z,16.50
2023-02-08T01:01:41.457Z,16.67
2023-02-08T01:04:08.605Z,16.23
2023-02-08T01:06:35.281Z,15.52
2023-02-08T01:09:01.982Z,16.30
2023-02-08T01:11:28.783Z,16.73
2023-02-08T01:14:00.370Z,16.40
2023-02-08T01:16:30.542Z,15.70
2023-02-08T01:18:59.032Z,16.92
2023-02-08T01:21:32.097Z,16.92
2023-02-08T01:23:59.469Z,16.77
2023-02-08T01:26:26.894Z,16.75
2023-02-08T01:28:55.081Z,16.35
2023-02-08T01:31:29.239Z,16.48
2023-02-08T01:33:57.034Z,16.02
2023-02-08T01:36:24.769Z,16.40
2023-02-08T01:38:51.858Z,16.42
2023-02-08T01:41:22.144Z,15.50
2023-02-08T01:44:01.282Z,17.17
2023-02-08T01:46:29.163Z,17.42
2023-02-08T01:49:01.437Z,16.52
2023-02-08T01:51:34.141Z,17.02
2023-02-08T01:54:03.460Z,18.52
2023-02-08T01:56:35.847Z,16.17
2023-02-08T01:59:08.970Z,16.98
2023-02-08T02:01:37.897Z,16.92
2023-02-08T02:04:05.943Z,15.52
2023-02-08T02:06:37.382Z,16.58
2023-02-08T02:09:19.235Z,17.08
2023-02-08T02:11:46.001Z,16.23
2023-02-08T02:14:13.644Z,16.38
2023-02-08T02:16:40.480Z,16.48
2023-02-08T02:19:33.889Z,16.67
2023-02-08T02:22:13.150Z,16.13
2023-02-08T02:25:01.113Z,16.10
2023-02-08T02:27:38.155Z,16.45
2023-02-08T02:30:31.635Z,15.65
2023-02-08T02:33:16.524Z,16.85
2023-02-08T02:35:57.498Z,15.82
2023-02-08T02:38:42.988Z,16.92
2023-02-08T02:42:05.612Z,17.58
2023-02-08T02:44:45.570Z,16.83
2023-02-08T02:47:37.435Z,16.27
2023-02-08T02:50:19.936Z,16.85
2023-02-08T02:52:57.156Z,16.95
2023-02-08T02:55:28.163Z,16.35
2023-02-08T02:57:57.894Z,17.15
2023-02-08T03:00:27.887Z,17.23
2023-02-08T03:02:55.828Z,17.50
2023-02-08T03:05:22.797Z,17.63
2023-02-08T03:08:18.562Z,16.58
2023-02-08T03:10:48.390Z,16.13
2023-02-08T03:13:47.354Z,16.98
2023-02-08T03:16:44.923Z,16.80
2023-02-08T03:19:25.143Z,16.50
2023-02-08T03:22:03.973Z,16.45
2023-02-08T03:24:55.151Z,17.42
2023-02-08T03:27:31.823Z,15.75
2023-02-08T03:30:12.695Z,16.30
2023-02-08T03:32:59.817Z,16.20
2023-02-08T03:35:33.734Z,16.05
2023-02-08T03:38:05.628Z,15.85
2023-02-08T03:40:40.638Z,16.13
2023-02-08T03:43:23.369Z,16.98
2023-02-08T03:46:27.150Z,16.60
2023-02-08T03:49:02.515Z,17.38
2023-02-08T03:51:31.461Z,16.33
2023-02-08T03:54:00.535Z,17.17
2023-02-08T03:56:50.139Z,16.85
2023-02-08T03:59:25.032Z,16.77
2023-02-08T04:01:59.138Z,16.35
2023-02-08T04:04:28.063Z,16.48
2023-02-08T04:06:54.877Z,16.10
2023-02-08T04:09:21.703Z,16.27
2023-02-08T04:11:48.462Z,17.15
2023-02-08T04:14:15.296Z,17.55
2023-02-08T04:16:42.358Z,16.02
2023-02-08T04:19:09.094Z,17.65
2023-02-08T04:21:35.798Z,16.42
2023-02-08T04:24:05.816Z,16.15
2023-02-08T04:26:32.543Z,16.38
2023-02-08T04:28:59.296Z,16.85
2023-02-08T04:31:26.239Z,16.55
2023-02-08T04:33:53.173Z,17.60
2023-02-08T04:36:20.142Z,17.73
2023-02-08T04:38:46.883Z,17.33
2023-02-08T04:41:13.624Z,16.05
2023-02-08T04:43:40.417Z,17.10
2023-02-08T04:46:07.632Z,17.15
2023-02-08T04:48:34.331Z,17.17
2023-02-08T04:51:01.015Z,17.42
2023-02-08T04:53:27.821Z,15.85
2023-02-08T04:55:54.528Z,17.88
2023-02-08T04:58:21.661Z,17.13
2023-02-08T05:00:48.442Z,17.92
2023-02-08T05:03:15.539Z,16.38
2023-02-08T05:05:42.363Z,17.88
2023-02-08T05:08:09.289Z,16.73
2023-02-08T05:10:36.153Z,18.15
2023-02-08T05:13:03.054Z,17.73
2023-02-08T05:15:29.824Z,19.30
2023-02-08T05:17:56.675Z,17.13
2023-02-08T05:20:23.526Z,19.48
2023-02-08T05:22:50.358Z,17.17
2023-02-08T05:25:18.100Z,17.98
2023-02-08T05:27:45.118Z,18.13
2023-02-08T05:30:12.268Z,17.65
2023-02-08T05:32:39.094Z,18.92
2023-02-08T05:35:06.244Z,18.50
2023-02-08T05:37:33.052Z,18.08
2023-02-08T05:39:59.790Z,17.83
2023-02-08T05:42:27.187Z,17.08
2023-02-08T05:44:53.991Z,17.65
2023-02-08T05:47:20.665Z,17.92
2023-02-08T05:49:47.580Z,18.40
2023-02-08T05:52:14.264Z,18.10
2023-02-08T05:54:41.051Z,18.40
2023-02-08T05:57:07.886Z,17.33
2023-02-08T05:59:34.740Z,19.90
2023-02-08T06:02:02.192Z,19.73
2023-02-08T06:04:29.350Z,18.95
2023-02-08T06:06:56.061Z,18.27
2023-02-08T06:09:22.852Z,18.17
2023-02-08T06:11:49.982Z,18.58
2023-02-08T06:14:16.839Z,19.08
2023-02-08T06:16:43.608Z,18.38
2023-02-08T06:19:10.499Z,17.83
2023-02-08T06:21:37.173Z,19.27
2023-02-08T06:24:04.429Z,19.27
2023-02-08T06:26:31.198Z,18.58
2023-02-08T06:28:59.586Z,18.38
2023-02-08T06:31:26.637Z,18.45
2023-02-08T06:33:53.634Z,20.25
2023-02-08T06:36:20.362Z,18.70
2023-02-08T06:38:47.151Z,19.92
2023-02-08T06:41:14.041Z,20.42
2023-02-08T06:43:41.127Z,18.85
2023-02-08T06:46:08.771Z,18.63
2023-02-08T06:48:36.452Z,18.02
2023-02-08T06:51:03.651Z,17.95
2023-02-08T06:53:30.536Z,17.63
2023-02-08T06:55:57.575Z,17.95
2023-02-08T06:58:24.313Z,18.48
2023-02-08T07:00:51.142Z,18.02
2023-02-08T07:03:18.138Z,17.60
2023-02-08T07:05:58.677Z,18.20
2023-02-08T07:08:30.768Z,18.55
2023-02-08T07:10:57.478Z,17.98
2023-02-08T07:13:24.137Z,20.50
2023-02-08T07:15:50.933Z,19.50
2023-02-08T07:18:17.637Z,19.58
2023-02-08T07:20:44.537Z,20.60
2023-02-08T07:23:11.280Z,18.67
2023-02-08T07:25:37.977Z,19.63
2023-02-08T07:28:04.903Z,18.38
2023-02-08T07:30:31.945Z,18.55
2023-02-08T07:32:58.634Z,18.52
2023-02-08T07:35:25.355Z,19.52
2023-02-08T07:37:52.331Z,18.13
2023-02-08T07:40:19.067Z,19.35
2023-02-08T07:42:45.927Z,19.48
2023-02-08T07:45:12.746Z,18.90
2023-02-08T07:47:39.503Z,17.27
2023-02-08T07:50:06.686Z,17.55
2023-02-08T07:52:33.998Z,18.42
2023-02-08T07:55:00.747Z,18.05
2023-02-08T07:57:27.450Z,17.63
2023-02-08T07:59:54.370Z,19.38
2023-02-08T08:02:21.108Z,17.23
2023-02-08T08:04:47.954Z,17.77
2023-02-08T08:07:14.817Z,19.15
2023-02-08T08:09:41.646Z,17.60
2023-02-08T08:12:08.421Z,17.67
2023-02-08T08:14:35.200Z,18.70
2023-02-08T08:17:01.933Z,17.38
2023-02-08T08:19:28.762Z,19.10
2023-02-08T08:21:55.779Z,18.40
2023-02-08T08:24:22.505Z,17.45
2023-02-08T08:26:49.286Z,18.98
2023-02-08T08:29:16.078Z,18.73
2023-02-08T08:31:43.904Z,18.35
2023-02-08T08:34:10.733Z,19.70
2023-02-08T08:36:37.479Z,18.48
2023-02-08T08:39:04.331Z,18.73
2023-02-08T08:41:31.276Z,17.77
2023-02-08T08:43:58.081Z,18.42
2023-02-08T08:46:25.243Z,19.23
2023-02-08T08:48:52.730Z,18.48
2023-02-08T08:51:19.573Z,18.25
2023-02-08T08:53:46.578Z,19.48
2023-02-08T08:56:13.359Z,18.52
2023-02-08T08:58:40.230Z,19.00
2023-02-08T09:01:07.065Z,18.33
2023-02-08T09:03:33.849Z,17.23
2023-02-08T09:06:00.790Z,18.23
2023-02-08T09:08:27.483Z,16.10
2023-02-08T09:10:54.186Z,15.80
2023-02-08T09:13:21.779Z,14.43
2023-02-08T09:15:49.483Z,14.68
2023-02-08T09:18:16.644Z,14.02
2023-02-08T09:20:43.808Z,11.65
2023-02-08T09:23:11.150Z,11.77
2023-02-08T09:25:38.238Z,11.55
2023-02-08T09:28:05.225Z,10.68
2023-02-08T09:30:32.201Z,11.13
2023-02-08T09:32:58.994Z,11.07
2023-02-08T09:35:26.013Z,11.95
2023-02-08T09:37:55.413Z,11.35
2023-02-08T09:40:30.861Z,11.77
2023-02-08T09:43:10.196Z,13.52
2023-02-08T09:45:59.970Z,11.55
2023-02-08T09:48:34.507Z,11.48
2023-02-08T09:51:10.380Z,10.02
2023-02-08T09:53:44.047Z,8.68
2023-02-08T09:56:15.633Z,8.55
2023-02-08T09:58:49.784Z,9.18
2023-02-08T10:01:25.099Z,10.23
2023-02-08T10:04:22.159Z,9.60
2023-02-08T10:06:50.192Z,10.40
2023-02-08T10:09:26.917Z,10.13
2023-02-08T10:12:16.249Z,8.88
2023-02-08T10:14:55.237Z,9.02
2023-02-08T10:17:58.215Z,8.63
2023-02-08T10:20:25.023Z,8.85
2023-02-08T10:23:10.291Z,9.57
2023-02-08T10:26:04.300Z,9.63
2023-02-08T10:28:58.890Z,10.18
2023-02-08T10:31:44.421Z,10.05
2023-02-08T10:34:24.281Z,10.93
2023-02-08T10:36:51.307Z,11.27
2023-02-08T10:39:24.229Z,11.15
2023-02-08T10:41:51.474Z,11.55
2023-02-08T10:44:34.227Z,11.95
2023-02-08T10:47:09.144Z,11.93
2023-02-08T10:49:50.557Z,11.18
2023-02-08T10:52:17.428Z,10.27
2023-02-08T10:54:44.242Z,10.52
2023-02-08T10:57:23.632Z,9.32
2023-02-08T11:00:05.947Z,8.88
2023-02-08T11:02:35.941Z,9.23
2023-02-08T11:05:06.885Z,8.73
2023-02-08T11:07:36.335Z,8.40
2023-02-08T11:10:25.023Z,9.25
2023-02-08T11:12:57.410Z,9.07
2023-02-08T11:15:28.006Z,8.82
2023-02-08T11:18:05.731Z,8.48
2023-02-08T11:20:37.606Z,8.98
2023-02-08T11:23:17.117Z,10.02
2023-02-08T11:25:44.125Z,9.68
2023-02-08T11:28:31.259Z,9.07
2023-02-08T11:31:08.501Z,9.70
2023-02-08T11:33:36.844Z,9.88
2023-02-08T11:36:07.009Z,10.00
2023-02-08T11:38:36.733Z,9.30
2023-02-08T11:41:13.663Z,10.52
2023-02-08T11:43:40.965Z,10.43
2023-02-08T11:46:08.720Z,10.55
2023-02-08T11:48:43.720Z,11.57
2023-02-08T11:51:14.405Z,10.68
2023-02-08T11:53:46.864Z,11.05
2023-02-08T11:56:22.606Z,10.52
2023-02-08T11:59:12.479Z,10.50
2023-02-08T12:01:41.777Z,10.65
2023-02-08T12:04:14.547Z,11.15
2023-02-08T12:07:03.025Z,11.32
2023-02-08T12:10:17.596Z,10.70
2023-02-08T12:12:50.101Z,10.18
2023-02-08T12:15:30.595Z,9.70
2023-02-08T12:18:06.460Z,10.35
2023-02-08T12:20:40.803Z,11.10
2023-02-08T12:23:20.923Z,11.00
2023-02-08T12:26:19.752Z,10.63
2023-02-08T12:28:52.898Z,10.75
2023-02-08T12:31:37.714Z,11.23
2023-02-08T12:34:43.468Z,12.00
2023-02-08T12:37:54.770Z,11.00
2023-02-08T12:40:42.693Z,12.15
2023-02-08T12:43:14.068Z,10.82
2023-02-08T12:46:08.552Z,11.38
2023-02-08T12:48:45.094Z,11.30
2023-02-08T12:51:24.700Z,11.88
2023-02-08T12:54:00.660Z,11.50
2023-02-08T12:56:32.994Z,11.80
2023-02-08T12:59:13.081Z,11.85
2023-02-08T13:01:46.491Z,11.48
2023-02-08T13:04:33.160Z,12.07
2023-02-08T13:07:07.168Z,11.38
2023-02-08T13:09:35.514Z,11.52
2023-02-08T13:12:25.622Z,11.50
2023-02-08T13:14:56.022Z,11.60
2023-02-08T13:17:30.135Z,11.57
2023-02-08T13:20:13.984Z,11.80
2023-02-08T13:22:42.447Z,11.35
2023-02-08T13:25:23.636Z,11.85
2023-02-08T13:27:52.080Z,12.77
2023-02-08T13:30:20.661Z,12.57
2023-02-08T13:32:50.646Z,12.35
2023-02-08T13:35:31.548Z,11.98
2023-02-08T13:38:05.638Z,12.40
2023-02-08T13:40:35.133Z,12.10
2023-02-08T13:43:34.791Z,12.20
2023-02-08T13:46:03.862Z,12.90
2023-02-08T13:48:46.014Z,12.98
2023-02-08T13:51:31.209Z,12.70
2023-02-08T13:53:58.004Z,12.23
2023-02-08T13:56:49.691Z,12.07
2023-02-08T13:59:34.177Z,11.85
2023-02-08T14:02:14.458Z,13.07
2023-02-08T14:04:43.177Z,12.48
2023-02-08T14:07:09.925Z,12.23
2023-02-08T14:09:46.029Z,12.32
2023-02-08T14:12:46.901Z,12.57
2023-02-08T14:15:16.692Z,11.93
2023-02-08T14:18:04.678Z,12.45
2023-02-08T14:20:39.821Z,13.35
2023-02-08T14:23:27.487Z,12.82
2023-02-08T14:25:56.495Z,12.48
2023-02-08T14:28:40.383Z,12.65
2023-02-08T14:31:10.324Z,11.90
2023-02-08T14:33:49.478Z,11.93
2023-02-08T14:36:35.817Z,12.32
2023-02-08T14:39:24.344Z,12.20
2023-02-08T14:41:54.954Z,12.40
2023-02-08T14:44:41.597Z,12.05
2023-02-08T14:47:13.041Z,12.38
2023-02-08T14:49:44.836Z,13.02
2023-02-08T14:52:19.314Z,11.68
2023-02-08T14:54:58.244Z,11.50
2023-02-08T14:57:34.336Z,12.30
2023-02-08T15:00:07.478Z,12.15
2023-02-08T15:02:39.290Z,12.45
2023-02-08T15:05:10.384Z,12.05
2023-02-08T15:08:03.832Z,11.60
2023-02-08T15:10:33.065Z,12.40
2023-02-08T15:13:06.399Z,12.35
2023-02-08T15:15:34.933Z,12.10
2023-02-08T15:18:04.075Z,11.57
2023-02-08T15:20:33.847Z,10.80
2023-02-08T15:23:03.642Z,12.13
2023-02-08T15:25:36.472Z,11.50
2023-02-08T15:28:25.456Z,12.18
2023-02-08T15:31:09.311Z,13.02
2023-02-08T15:33:39.387Z,11.20
2023-02-08T15:36:14.270Z,11.13
2023-02-08T15:38:44.899Z,12.52
2023-02-08T15:41:23.684Z,11.20
2023-02-08T15:43:50.565Z,12.07
2023-02-08T15:46:22.515Z,11.18
2023-02-08T15:48:50.772Z,12.77
2023-02-08T15:51:20.463Z,11.60
2023-02-08T15:53:50.452Z,11.48
2023-02-08T15:56:35.740Z,12.13
2023-02-08T15:59:04.552Z,12.07
2023-02-08T16:01:32.236Z,11.38
2023-02-08T16:04:05.985Z,11.77
2023-02-08T16:06:44.860Z,11.23
2023-02-08T16:09:21.369Z,11.35
2023-02-08T16:11:50.081Z,11.35
2023-02-08T16:14:21.751Z,11.45
2023-02-08T16:16:54.294Z,11.32
2023-02-08T16:19:29.760Z,11.65
2023-02-08T16:22:21.071Z,11.95
2023-02-08T16:24:50.846Z,11.30
2023-02-08T16:27:28.829Z,11.45
2023-02-08T16:29:55.937Z,11.43
2023-02-08T16:32:30.912Z,12.05
2023-02-08T16:34:58.089Z,11.82
2023-02-08T16:37:35.384Z,10.85
2023-02-08T16:40:07.982Z,12.15
2023-02-08T16:42:42.728Z,11.15
2023-02-08T16:45:09.656Z,11.30
2023-02-08T16:47:48.492Z,11.30
2023-02-08T16:50:24.591Z,11.35
2023-02-08T16:52:56.169Z,11.52
2023-02-08T16:55:28.613Z,11.63
2023-02-08T16:57:57.166Z,11.68
2023-02-08T17:00:32.673Z,11.20
2023-02-08T17:02:59.783Z,12.23
2023-02-08T17:05:38.090Z,11.13
2023-02-08T17:08:09.999Z,12.30
2023-02-08T17:10:37.250Z,10.63
2023-02-08T17:13:19.424Z,11.88
2023-02-08T17:15:49.739Z,11.85
2023-02-08T17:18:16.764Z,12.07
2023-02-08T17:20:43.740Z,12.20
2023-02-08T17:23:11.665Z,12.38
2023-02-08T17:25:38.788Z,11.43
2023-02-08T17:28:14.277Z,12.23
2023-02-08T17:33:11.762Z,12.00
2023-02-08T17:35:38.558Z,11.93
2023-02-08T17:38:05.964Z,11.68
2023-02-08T17:40:34.877Z,11.85
2023-02-08T17:43:03.070Z,11.70
2023-02-08T17:45:30.232Z,9.90
2023-02-08T17:48:00.307Z,9.98
2023-02-08T17:50:27.536Z,9.88
2023-02-08T17:52:55.267Z,10.25
2023-02-08T17:55:22.353Z,10.27
2023-02-08T17:57:49.178Z,9.93
2023-02-08T18:00:18.650Z,9.38
2023-02-08T18:02:51.568Z,9.68
2023-02-08T18:05:21.241Z,10.20
2023-02-08T18:07:47.924Z,9.60
2023-02-08T18:10:15.873Z,9.82
2023-02-08T18:12:43.070Z,9.80
2023-02-08T18:15:12.817Z,10.60
2023-02-08T18:17:40.587Z,11.05
2023-02-08T18:20:08.855Z,10.38
2023-02-08T18:22:36.994Z,10.27
2023-02-08T18:25:05.093Z,10.95
2023-02-08T18:27:31.885Z,11.18
2023-02-08T18:29:58.729Z,10.70
2023-02-08T18:32:28.196Z,10.60
2023-02-08T18:34:55.968Z,11.38
2023-02-08T18:37:23.243Z,11.57
2023-02-08T18:39:51.222Z,11.50
2023-02-08T18:42:18.327Z,12.38
2023-02-08T18:44:45.531Z,12.63
2023-02-08T18:47:12.321Z,12.32
2023-02-08T18:49:40.964Z,11.80
2023-02-08T18:52:13.462Z,12.40
2023-02-08T18:54:40.481Z,11.43
2023-02-08T18:57:10.570Z,11.85
2023-02-08T18:59:38.745Z,12.90
2023-02-08T19:02:07.359Z,12.93
2023-02-08T19:04:40.508Z,12.40
2023-02-08T19:07:08.071Z,12.77
2023-02-08T19:09:36.377Z,12.02
2023-02-08T19:12:03.987Z,12.20
2023-02-08T19:14:30.892Z,12.57
2023-02-08T19:16:57.759Z,12.30
2023-02-08T19:19:24.593Z,13.07
2023-02-08T19:21:51.451Z,12.30
2023-02-08T19:24:19.680Z,13.20
2023-02-08T19:26:47.146Z,13.50
2023-02-08T19:29:15.790Z,13.73
2023-02-08T19:31:43.318Z,12.95
2023-02-08T19:34:10.705Z,12.80
2023-02-08T19:36:41.841Z,13.60
2023-02-08T19:39:08.768Z,12.77
2023-02-08T19:41:38.217Z,14.07
2023-02-08T19:44:06.701Z,13.52
2023-02-08T19:46:35.536Z,13.63
2023-02-08T19:49:02.470Z,14.25
2023-02-08T19:51:34.584Z,13.57
2023-02-08T19:54:03.298Z,13.80
2023-02-08T19:56:36.277Z,15.07
2023-02-08T19:59:05.147Z,13.93
2023-02-08T20:01:34.242Z,13.80
2023-02-08T20:04:02.089Z,14.35
2023-02-08T20:06:32.573Z,13.15
2023-02-08T20:09:00.541Z,13.30
2023-02-08T20:11:30.471Z,14.93
2023-02-08T20:13:59.912Z,13.77
2023-02-08T20:16:30.464Z,13.95
2023-02-08T20:18:58.601Z,13.10
2023-02-08T20:21:25.606Z,13.63
2023-02-08T20:23:52.812Z,13.07
2023-02-08T20:26:25.113Z,13.10
2023-02-08T20:28:57.868Z,12.82
2023-02-08T20:31:29.338Z,13.52
2023-02-08T20:34:03.265Z,13.30
2023-02-08T20:36:33.283Z,13.23
2023-02-08T20:39:00.234Z,13.52
2023-02-08T20:41:30.422Z,11.95
2023-02-08T20:43:57.160Z,12.65
2023-02-08T20:46:26.765Z,11.40
2023-02-08T20:48:56.169Z,12.40
2023-02-08T20:51:23.979Z,11.38
2023-02-08T20:53:50.796Z,12.40
2023-02-08T20:56:23.454Z,10.48
2023-02-08T20:58:50.299Z,10.50
2023-02-08T21:01:20.015Z,11.27
2023-02-08T21:03:47.039Z,10.82
2023-02-08T21:06:18.068Z,11.07
2023-02-08T21:08:45.505Z,10.88
2023-02-08T21:11:12.972Z,9.98
2023-02-08T21:13:39.755Z,10.35
2023-02-08T21:16:08.381Z,9.85
2023-02-08T21:18:36.138Z,9.75
2023-02-08T21:21:04.234Z,9.77
2023-02-08T21:23:31.020Z,9.75
2023-02-08T21:26:02.136Z,10.05
2023-02-08T21:28:29.066Z,10.10
2023-02-08T21:31:01.210Z,10.05
2023-02-08T21:33:28.515Z,9.50
2023-02-08T21:35:55.435Z,9.10
2023-02-08T21:38:22.570Z,8.35
2023-02-08T21:40:49.355Z,8.68
2023-02-08T21:43:16.067Z,8.55
2023-02-08T21:45:42.950Z,8.73
2023-02-08T21:48:09.875Z,8.43
2023-02-08T21:50:57.224Z,8.63
2023-02-08T21:53:42.735Z,8.07
2023-02-08T21:56:10.300Z,7.80
2023-02-08T21:58:37.096Z,8.88
2023-02-08T22:01:05.910Z,8.27
2023-02-08T22:03:34.370Z,8.38
2023-02-08T22:06:01.482Z,7.30
2023-02-08T22:08:28.400Z,7.40
2023-02-08T22:10:58.302Z,7.78
2023-02-08T22:13:25.659Z,7.07
2023-02-08T22:15:52.664Z,8.20
2023-02-08T22:18:19.528Z,7.20
2023-02-08T22:20:46.518Z,7.22
2023-02-08T22:23:13.536Z,7.18
2023-02-08T22:25:40.382Z,7.15
2023-02-08T22:28:08.265Z,6.93
2023-02-08T22:30:35.199Z,7.30
2023-02-08T22:33:02.033Z,7.20
2023-02-08T22:35:28.778Z,7.13
2023-02-08T22:37:55.637Z,7.80
2023-02-08T22:40:22.481Z,7.13
2023-02-08T22:42:49.158Z,7.45
2023-02-08T22:45:15.955Z,6.93
2023-02-08T22:47:42.636Z,6.90
2023-02-08T22:50:10.399Z,6.63
2023-02-08T22:52:37.361Z,7.07
2023-02-08T22:55:04.960Z,7.45
2023-02-08T22:57:32.721Z,6.80
2023-02-08T23:00:00.080Z,7.03
2023-02-08T23:02:27.034Z,6.80
2023-02-08T23:04:53.928Z,6.78
2023-02-08T23:07:20.889Z,6.35
2023-02-08T23:09:47.693Z,6.32
2023-02-08T23:12:14.616Z,6.72
2023-02-08T23:14:41.393Z,6.68
2023-02-08T23:17:08.243Z,6.30
2023-02-08T23:19:34.988Z,6.68
2023-02-08T23:22:01.848Z,6.78
2023-02-08T23:24:28.682Z,5.80
2023-02-08T23:26:55.504Z,5.97
2023-02-08T23:29:22.593Z,5.95
2023-02-08T23:31:49.501Z,6.30
2023-02-08T23:34:16.658Z,6.53
2023-02-08T23:36:43.765Z,6.28
2023-02-08T23:39:10.703Z,5.72
2023-02-08T23:41:37.441Z,5.15
2023-02-08T23:44:04.456Z,5.78
2023-02-08T23:46:31.603Z,5.57
2023-02-08T23:48:58.546Z,5.45
2023-02-08T23:51:25.802Z,5.10
2023-02-08T23:53:53.939Z,5.50
2023-02-08T23:56:26.887Z,5.30
2023-02-08T23:58:58.405Z,5.20
